Time;durP1;ratioP1;P1;durP2;ratioP2;P2;SDS_P1;SDS_P2;PMS_P1;PMS_P2;Temp;Humidity;BMP_temperature;BMP_pressure;BME280_temperature;BME280_humidity;BME280_pressure;Samples;Min_cycle;Max_cycle;Signal;HPM_P1;HPM_P2
2022/11/15 00:01:46;;;;;;;44.45;23.38;;;;;;;6.83;77.78;100291.75;4301703;33;33583;-70
2022/11/15 00:04:33;;;;;;;46.90;22.33;;;;;;;6.70;79.72;100289.91;4301325;33;34125;-73
2022/11/15 00:07:18;;;;;;;44.40;22.62;;;;;;;6.84;78.42;100288.81;4302026;33;34129;-75
2022/11/15 00:10:24;;;;;;;44.75;21.35;;;;;;;6.70;78.50;100288.03;4290237;33;33858;-75
2022/11/15 00:13:12;;;;;;;44.20;24.12;;;;;;;6.37;80.71;100290.75;4301187;33;33211;-71
2022/11/15 00:15:58;;;;;;;52.05;24.00;;;;;;;6.37;80.95;100285.34;4291493;33;33890;-75
2022/11/15 00:18:44;;;;;;;46.60;21.62;;;;;;;6.51;80.14;100288.88;4301501;33;35225;-74
2022/11/15 00:21:35;;;;;;;47.20;23.42;;;;;;;6.65;79.02;100290.53;4301295;33;34195;-72
2022/11/15 00:24:21;;;;;;;45.08;23.17;;;;;;;6.35;80.83;100293.66;4302841;33;34573;-72
2022/11/15 00:27:07;;;;;;;61.13;23.20;;;;;;;6.30;81.77;100292.62;4301396;33;34135;-74
2022/11/15 00:29:56;;;;;;;55.10;22.30;;;;;;;6.39;81.64;100285.16;4301511;33;34788;-74
2022/11/15 00:32:42;;;;;;;44.75;24.17;;;;;;;6.23;82.28;100286.41;4289798;33;34702;-73
2022/11/15 00:35:28;;;;;;;38.08;23.52;;;;;;;6.53;81.14;100279.53;4289914;33;33480;-75
2022/11/15 00:38:14;;;;;;;60.78;22.45;;;;;;;6.91;79.79;100278.00;4289639;33;34768;-74
2022/11/15 00:41:01;;;;;;;42.05;22.50;;;;;;;7.13;78.68;100273.19;4300599;33;35138;-71
2022/11/15 00:43:54;;;;;;;38.72;22.77;;;;;;;7.14;79.22;100277.53;4293224;33;34024;-71
2022/11/15 00:46:40;;;;;;;42.83;23.23;;;;;;;7.77;75.94;100279.50;4304254;33;34172;-72
2022/11/15 00:49:25;;;;;;;41.58;23.87;;;;;;;7.09;79.04;100275.47;4292978;33;34473;-73
2022/11/15 00:52:11;;;;;;;43.80;23.85;;;;;;;7.27;78.08;100277.47;4304216;33;34190;-72
2022/11/15 00:54:57;;;;;;;39.10;22.13;;;;;;;7.45;76.73;100267.84;4303660;33;33870;-75
2022/11/15 00:57:43;;;;;;;43.38;23.70;;;;;;;6.57;80.87;100269.19;4291219;33;33404;-74
2022/11/15 01:00:29;;;;;;;51.45;21.98;;;;;;;6.84;79.05;100263.72;4303933;33;34715;-76
2022/11/15 01:03:15;;;;;;;54.97;23.23;;;;;;;6.86;78.87;100261.66;4303841;33;33907;-76
2022/11/15 01:06:01;;;;;;;43.67;23.17;;;;;;;6.38;81.46;100260.06;4290798;33;33170;-72
2022/11/15 01:08:47;;;;;;;44.40;22.13;;;;;;;6.64;80.70;100250.28;4304170;33;33419;-76
2022/11/15 01:11:33;;;;;;;53.33;22.20;;;;;;;6.90;79.11;100252.91;4302227;33;34861;-71
2022/11/15 01:14:18;;;;;;;40.92;23.25;;;;;;;6.86;79.74;100248.16;4303255;33;35122;-76
2022/11/15 01:17:10;;;;;;;41.67;22.75;;;;;;;7.13;78.80;100246.22;4303937;33;34357;-75
2022/11/15 01:19:55;;;;;;;67.85;20.85;;;;;;;7.01;79.71;100237.94;4304438;33;34463;-76
2022/11/15 01:22:41;;;;;;;46.55;24.40;;;;;;;7.05;79.13;100235.66;4305577;33;34891;-74
2022/11/15 01:25:27;;;;;;;51.35;24.77;;;;;;;6.69;80.86;100237.00;4305448;33;34333;-72
2022/11/15 01:28:12;;;;;;;49.00;23.75;;;;;;;6.46;81.27;100234.78;4304889;33;33881;-74
2022/11/15 01:31:03;;;;;;;44.95;22.75;;;;;;;6.64;81.59;100231.44;4304522;33;34490;-74
2022/11/15 01:33:49;;;;;;;54.03;23.12;;;;;;;6.58;81.74;100230.37;4305372;33;33967;-76
2022/11/15 01:36:35;;;;;;;46.60;24.27;;;;;;;6.24;83.37;100235.03;4305598;33;34197;-71
2022/11/15 01:39:20;;;;;;;63.50;25.02;;;;;;;6.06;84.36;100232.94;4305538;33;33795;-76
2022/11/15 01:42:12;;;;;;;50.70;25.50;;;;;;;5.88;86.01;100228.13;4304462;33;34323;-75
2022/11/15 01:44:58;;;;;;;43.60;25.40;;;;;;;6.50;83.29;100227.91;4304520;33;34815;-71
2022/11/15 01:47:48;;;;;;;46.17;24.90;;;;;;;6.85;80.39;100222.25;4305347;33;34156;-76
2022/11/15 01:50:34;;;;;;;45.55;24.50;;;;;;;6.52;82.08;100215.06;4290914;33;33972;-71
2022/11/15 01:53:21;;;;;;;60.33;25.25;;;;;;;6.67;81.48;100223.72;4289533;33;32466;-75
2022/11/15 01:56:10;;;;;;;46.05;26.42;;;;;;;6.48;82.08;100230.84;4289985;33;33876;-72
2022/11/15 01:58:57;;;;;;;49.85;25.75;;;;;;;6.53;82.66;100222.94;4275357;33;34035;-71
2022/11/15 02:01:43;;;;;;;44.85;25.25;;;;;;;6.91;80.77;100215.97;4274860;33;33949;-70
2022/11/15 02:04:32;;;;;;;44.45;25.20;;;;;;;6.95;80.73;100214.50;4280505;33;33434;-76
2022/11/15 02:07:19;;;;;;;49.45;25.48;;;;;;;6.58;82.85;100214.22;4276287;33;34142;-71
2022/11/15 02:10:17;;;;;;;48.67;25.35;;;;;;;5.32;89.02;100201.53;4275209;33;34344;-74
2022/11/15 02:13:02;;;;;;;51.67;26.08;;;;;;;6.18;85.34;100197.28;4288397;33;34064;-71
2022/11/15 02:16:12;;;;;;;50.83;26.95;;;;;;;6.13;84.78;100198.75;4290750;33;34099;-71
2022/11/15 02:19:23;;;;;;;48.45;25.85;;;;;;;5.88;86.65;100189.63;4282188;33;34008;-71
2022/11/15 02:22:38;;;;;;;47.03;25.85;;;;;;;6.02;84.91;100190.47;4290544;33;35102;-76
2022/11/15 02:25:39;;;;;;;44.38;24.95;;;;;;;6.46;83.60;100192.47;4289498;33;33691;-70
2022/11/15 02:28:27;;;;;;;44.20;26.75;;;;;;;6.17;84.76;100188.38;4276032;33;33798;-75
2022/11/15 02:31:31;;;;;;;44.65;25.12;;;;;;;6.10;85.44;100192.94;4275468;33;34904;-74
2022/11/15 02:34:48;;;;;;;44.28;24.25;;;;;;;6.77;82.84;100182.84;4275967;33;34018;-70
2022/11/15 02:38:07;;;;;;;43.65;24.35;;;;;;;7.01;81.47;100178.59;4290733;33;33836;-76
2022/11/15 02:40:58;;;;;;;45.78;24.92;;;;;;;6.70;82.74;100185.56;4289129;33;34431;-75
2022/11/15 02:43:56;;;;;;;47.67;26.77;;;;;;;6.63;82.79;100182.06;4289217;33;33781;-72
2022/11/15 02:49:57;;;;;;;43.47;24.17;;;;;;;6.41;84.30;100183.34;4286977;33;34009;-71
2022/11/15 02:52:48;;;;;;;46.75;26.10;;;;;;;6.25;84.70;100176.56;4288606;33;33573;-71
2022/11/15 02:55:38;;;;;;;44.88;25.95;;;;;;;6.32;84.21;100186.28;4293959;33;33844;-71
2022/11/15 02:58:53;;;;;;;44.35;24.55;;;;;;;6.49;83.17;100178.56;4293348;33;35055;-72
2022/11/15 03:01:52;;;;;;;42.47;24.52;;;;;;;6.92;81.28;100180.69;4293636;33;34059;-77
2022/11/15 03:04:46;;;;;;;47.03;25.90;;;;;;;6.96;80.57;100171.16;4305087;33;34352;-71
2022/11/15 03:07:37;;;;;;;43.58;24.50;;;;;;;6.70;81.52;100182.03;4302989;33;33463;-77
2022/11/15 03:10:35;;;;;;;46.55;23.90;;;;;;;6.85;80.98;100173.69;4293846;33;34313;-71
2022/11/15 03:13:43;;;;;;;44.92;24.90;;;;;;;6.59;82.39;100180.84;4293446;33;34200;-77
2022/11/15 03:16:35;;;;;;;44.35;24.75;;;;;;;6.43;82.63;100181.28;4293823;33;34375;-76
2022/11/15 03:19:31;;;;;;;45.30;23.80;;;;;;;6.42;82.73;100177.75;4281179;33;34734;-76
2022/11/15 03:22:20;;;;;;;38.78;22.95;;;;;;;6.66;81.89;100170.84;4304795;33;34185;-72
2022/11/15 03:25:08;;;;;;;43.13;23.90;;;;;;;6.93;79.68;100166.19;4292896;33;33849;-72
2022/11/15 03:27:57;;;;;;;42.83;25.45;;;;;;;6.72;81.32;100159.22;4293604;33;33452;-75
2022/11/15 03:30:45;;;;;;;42.47;23.98;;;;;;;6.73;80.76;100154.66;4293508;33;34803;-71
2022/11/15 03:33:31;;;;;;;44.75;23.27;;;;;;;7.12;78.78;100150.91;4304611;33;34947;-77
2022/11/15 03:36:18;;;;;;;38.92;22.55;;;;;;;6.97;79.30;100151.19;4278939;33;33842;-76
2022/11/15 03:39:06;;;;;;;35.30;20.50;;;;;;;7.02;79.59;100152.44;4279207;33;33680;-72
2022/11/15 03:42:08;;;;;;;33.85;19.67;;;;;;;6.91;80.38;100137.75;4285130;33;34825;-71
2022/11/15 03:45:06;;;;;;;32.15;19.30;;;;;;;7.09;80.15;100137.88;4293531;33;35086;-70
2022/11/15 03:47:57;;;;;;;29.73;18.15;;;;;;;7.07;80.25;100131.03;4302361;33;34068;-71
2022/11/15 03:50:43;;;;;;;29.37;17.48;;;;;;;6.54;83.36;100132.94;4290070;33;33577;-77
2022/11/15 03:53:30;;;;;;;29.80;17.92;;;;;;;7.08;80.82;100125.41;4279324;33;34558;-72
2022/11/15 03:56:16;;;;;;;28.85;17.40;;;;;;;7.54;79.00;100136.97;4278892;33;35130;-75
2022/11/15 03:59:02;;;;;;;30.80;17.65;;;;;;;7.51;78.90;100140.91;4290063;33;33981;-77
2022/11/15 04:01:48;;;;;;;30.17;18.42;;;;;;;6.54;82.46;100127.56;4290111;33;34982;-72
2022/11/15 04:04:34;;;;;;;27.98;16.95;;;;;;;6.66;83.06;100114.22;4293203;33;34935;-72
2022/11/15 04:07:19;;;;;;;27.48;16.83;;;;;;;7.24;80.50;100113.28;4290085;33;33917;-72
2022/11/15 04:10:06;;;;;;;25.58;14.80;;;;;;;7.19;80.67;100113.09;4289903;33;33990;-71
2022/11/15 04:12:52;;;;;;;24.52;15.27;;;;;;;7.11;80.01;100102.59;4289872;33;33891;-76
2022/11/15 04:15:38;;;;;;;28.33;17.27;;;;;;;7.53;78.46;100129.91;4299188;33;34631;-76
2022/11/15 04:18:24;;;;;;;30.02;17.58;;;;;;;7.59;78.89;100121.75;4293482;33;34175;-72
2022/11/15 04:24:14;;;;;;;25.52;15.48;;;;;;;7.28;78.99;100122.59;4302103;33;33801;-76
2022/11/15 04:27:00;;;;;;;24.52;15.13;;;;;;;7.81;77.01;100124.06;4304508;33;34005;-72
2022/11/15 04:29:46;;;;;;;23.75;14.70;;;;;;;7.48;78.35;100130.56;4304166;33;34936;-76
2022/11/15 04:32:32;;;;;;;24.05;15.27;;;;;;;7.34;79.10;100120.91;4304023;33;34120;-75
2022/11/15 04:35:17;;;;;;;24.27;14.98;;;;;;;6.88;81.44;100106.66;4294281;33;33384;-73
2022/11/15 04:38:04;;;;;;;25.20;16.02;;;;;;;7.21;79.77;100105.63;4285313;33;34098;-76
2022/11/15 04:40:50;;;;;;;26.95;17.30;;;;;;;7.56;77.91;100100.59;4304333;33;34929;-72
2022/11/15 04:43:36;;;;;;;22.75;15.27;;;;;;;7.13;79.31;100089.72;4292346;33;34099;-76
2022/11/15 04:46:23;;;;;;;29.30;17.30;;;;;;;7.03;80.70;100094.75;4281712;33;32961;-77
2022/11/15 04:49:09;;;;;;;33.58;18.40;;;;;;;7.30;79.27;100096.22;4278518;33;34668;-72
2022/11/15 04:51:55;;;;;;;26.08;16.40;;;;;;;7.34;78.89;100096.59;4287745;33;34022;-71
2022/11/15 04:54:41;;;;;;;27.30;16.45;;;;;;;7.38;78.78;100101.34;4292656;33;33952;-81
2022/11/15 04:57:28;;;;;;;28.42;17.20;;;;;;;7.50;78.34;100106.06;4304120;33;33511;-75
2022/11/15 05:00:15;;;;;;;25.48;16.60;;;;;;;7.69;77.50;100107.75;4303701;33;34035;-75
2022/11/15 05:06:06;;;;;;;27.45;17.25;;;;;;;7.83;77.18;100103.06;4303067;33;34991;-75
2022/11/15 05:08:52;;;;;;;25.20;15.57;;;;;;;7.75;77.62;100103.31;4304026;33;34442;-74
2022/11/15 05:11:38;;;;;;;23.75;15.70;;;;;;;8.11;76.21;100110.69;4292417;33;33939;-74
2022/11/15 05:14:24;;;;;;;24.33;15.85;;;;;;;7.92;76.63;100109.00;4303773;33;33997;-74
2022/11/15 05:17:10;;;;;;;26.08;16.67;;;;;;;7.85;76.75;100103.66;4292803;33;34965;-75
2022/11/15 05:19:56;;;;;;;26.62;16.73;;;;;;;7.44;79.08;100090.72;4303519;33;33633;-74
2022/11/15 05:22:42;;;;;;;29.33;16.85;;;;;;;7.29;79.98;100099.97;4302029;33;33660;-73
2022/11/15 05:25:27;;;;;;;26.83;16.65;;;;;;;7.59;78.63;100097.44;4289164;33;34915;-75
2022/11/15 05:28:13;;;;;;;26.50;16.98;;;;;;;7.89;76.62;100096.78;4278149;33;34730;-75
2022/11/15 05:31:03;;;;;;;27.83;17.58;;;;;;;7.60;78.21;100093.72;4288789;33;33618;-75
2022/11/15 05:33:51;;;;;;;27.60;17.23;;;;;;;7.65;78.16;100086.81;4277928;33;34766;-74
2022/11/15 05:36:45;;;;;;;28.73;17.75;;;;;;;7.55;78.35;100085.44;4288264;33;35157;-75
2022/11/15 05:39:31;;;;;;;28.30;17.98;;;;;;;7.59;78.03;100078.53;4291411;33;34152;-75
2022/11/15 05:42:17;;;;;;;29.75;18.62;;;;;;;7.69;77.57;100078.06;4302559;33;34545;-73
2022/11/15 05:45:04;;;;;;;29.98;18.40;;;;;;;7.28;79.57;100087.53;4303253;33;33768;-75
2022/11/15 05:47:51;;;;;;;29.67;19.15;;;;;;;7.50;79.23;100081.75;4292224;33;34392;-75
2022/11/15 05:50:38;;;;;;;30.73;18.25;;;;;;;7.75;78.07;100081.72;4294040;33;34194;-75
2022/11/15 05:53:24;;;;;;;27.62;17.37;;;;;;;7.93;77.38;100089.88;4292365;33;34666;-74
2022/11/15 05:56:12;;;;;;;25.10;15.90;;;;;;;8.14;76.26;100091.34;4303368;33;33847;-75
2022/11/15 05:58:59;;;;;;;22.67;15.65;;;;;;;8.29;75.62;100073.91;4292109;33;35092;-74
2022/11/15 06:01:45;;;;;;;25.65;16.45;;;;;;;8.02;77.08;100083.12;4292223;33;34341;-77
2022/11/15 06:04:31;;;;;;;26.45;16.85;;;;;;;8.15;76.83;100062.41;4279497;33;34126;-75
2022/11/15 06:07:17;;;;;;;25.17;16.65;;;;;;;8.51;75.33;100068.88;4303653;33;33222;-78
2022/11/15 06:10:04;;;;;;;25.17;16.27;;;;;;;8.35;75.51;100075.69;4289018;33;34837;-72
2022/11/15 06:13:03;;;;;;;25.80;16.12;;;;;;;8.32;75.72;100079.69;4289378;33;33978;-76
2022/11/15 06:15:49;;;;;;;31.15;19.23;;;;;;;7.82;78.67;100082.50;4291952;33;33535;-72
2022/11/15 06:18:35;;;;;;;29.37;19.15;;;;;;;7.69;79.23;100075.34;4287490;33;34080;-72
2022/11/15 06:21:22;;;;;;;31.75;20.05;;;;;;;8.22;77.76;100080.19;4279424;33;32582;-73
2022/11/15 06:24:08;;;;;;;31.35;20.20;;;;;;;7.98;78.60;100083.78;4291969;33;34691;-75
2022/11/15 06:26:54;;;;;;;39.40;24.75;;;;;;;8.34;77.13;100084.87;4291533;33;33691;-73
2022/11/15 06:29:40;;;;;;;37.70;22.83;;;;;;;8.43;77.17;100086.25;4303169;33;33696;-73
2022/11/15 06:32:26;;;;;;;35.95;22.73;;;;;;;8.41;76.84;100088.34;4292503;33;34055;-75
2022/11/15 06:35:12;;;;;;;39.13;24.35;;;;;;;8.54;76.09;100088.19;4291008;33;34647;-75
2022/11/15 06:38:07;;;;;;;39.05;23.70;;;;;;;8.14;78.06;100093.19;4289208;33;34269;-79
2022/11/15 06:40:53;;;;;;;34.47;21.03;;;;;;;8.69;74.89;100092.38;4286998;33;34792;-78
2022/11/15 06:43:39;;;;;;;31.73;21.00;;;;;;;8.14;76.75;100090.47;4288932;33;33992;-79
2022/11/15 06:46:25;;;;;;;32.50;20.83;;;;;;;7.87;77.94;100084.53;4277355;33;33987;-77
2022/11/15 06:49:11;;;;;;;36.53;22.58;;;;;;;8.04;77.82;100084.78;4285995;33;32877;-78
2022/11/15 06:51:57;;;;;;;34.13;21.92;;;;;;;7.97;77.98;100087.56;4303093;33;33773;-79
2022/11/15 06:54:43;;;;;;;35.13;21.98;;;;;;;8.19;77.70;100094.16;4303245;33;34257;-74
2022/11/15 06:57:29;;;;;;;33.63;21.02;;;;;;;7.78;79.94;100076.72;4292031;33;34342;-77
2022/11/15 07:00:16;;;;;;;32.40;20.55;;;;;;;8.27;77.52;100087.66;4289043;33;33546;-73
2022/11/15 07:03:03;;;;;;;33.08;20.62;;;;;;;8.51;76.45;100079.69;4282808;33;33639;-75
2022/11/15 07:05:54;;;;;;;32.50;20.37;;;;;;;7.59;79.89;100073.12;4281986;33;33716;-71
2022/11/15 07:08:41;;;;;;;33.58;20.77;;;;;;;7.69;80.76;100079.91;4303335;33;34679;-73
2022/11/15 07:11:27;;;;;;;35.28;21.45;;;;;;;8.28;77.93;100072.25;4302988;33;33727;-80
2022/11/15 07:14:13;;;;;;;33.35;22.05;;;;;;;8.42;77.49;100068.34;4302600;33;33747;-71
2022/11/15 07:16:59;;;;;;;35.92;22.67;;;;;;;8.50;77.81;100062.62;4300664;33;35102;-80
2022/11/15 07:19:45;;;;;;;34.05;21.52;;;;;;;8.79;76.09;100063.72;4303443;33;33825;-80
2022/11/15 07:22:30;;;;;;;36.25;22.33;;;;;;;8.56;77.41;100055.50;4303673;33;33318;-81
2022/11/15 07:25:16;;;;;;;32.55;20.80;;;;;;;8.19;79.06;100059.03;4303061;33;33944;-74
2022/11/15 07:28:02;;;;;;;34.75;21.80;;;;;;;8.24;79.70;100060.25;4303727;33;34069;-77
2022/11/15 07:30:48;;;;;;;29.98;20.23;;;;;;;8.45;78.15;100067.09;4293353;33;33734;-80
2022/11/15 07:33:35;;;;;;;36.28;22.05;;;;;;;8.36;78.53;100053.03;4288540;33;34233;-78
2022/11/15 07:36:21;;;;;;;35.63;22.83;;;;;;;8.61;77.65;100056.47;4279045;33;33875;-79
2022/11/15 07:39:07;;;;;;;33.47;21.25;;;;;;;8.70;77.35;100056.97;4289586;33;35053;-81
2022/11/15 07:42:52;;;;;;;34.92;21.80;;;;;;;8.80;77.06;100059.12;4292330;33;34672;-79
2022/11/15 07:44:58;;;;;;;31.30;20.58;;;;;;;8.72;77.07;100057.56;4304040;33;33536;-82
2022/11/15 07:47:48;;;;;;;33.80;21.25;;;;;;;8.86;77.08;100076.34;4300006;33;34725;-77
2022/11/15 07:50:34;;;;;;;34.50;21.67;;;;;;;8.76;77.60;100066.88;4277971;33;34784;-81
2022/11/15 07:53:20;;;;;;;31.77;19.80;;;;;;;8.91;76.00;100065.66;4289391;33;34177;-81
2022/11/15 07:56:07;;;;;;;35.22;20.77;;;;;;;8.52;77.89;100060.53;4288379;33;33829;-77
2022/11/15 07:58:52;;;;;;;32.67;20.40;;;;;;;8.57;78.07;100066.09;4293195;33;34024;-75
2022/11/15 08:01:38;;;;;;;32.42;20.25;;;;;;;8.64;77.60;100055.19;4304006;33;34369;-80
2022/11/15 08:04:24;;;;;;;33.60;21.23;;;;;;;8.66;77.15;100049.53;4303488;33;34799;-81
2022/11/15 08:07:10;;;;;;;33.72;20.75;;;;;;;8.95;76.55;100066.84;4289243;33;32277;-75
2022/11/15 08:09:58;;;;;;;29.70;19.45;;;;;;;8.81;78.36;100068.88;4282649;33;34697;-72
2022/11/15 08:12:43;;;;;;;30.00;19.75;;;;;;;8.63;77.72;100053.53;4291278;33;33690;-73
2022/11/15 08:15:30;;;;;;;31.33;20.58;;;;;;;8.72;77.28;100043.22;4291662;33;34574;-73
2022/11/15 08:18:17;;;;;;;30.70;19.73;;;;;;;8.22;80.00;100025.31;4278791;33;32047;-72
2022/11/15 08:21:03;;;;;;;33.95;20.20;;;;;;;8.46;78.71;100029.00;4290676;33;33885;-73
2022/11/15 08:23:49;;;;;;;29.90;19.65;;;;;;;8.40;79.20;100021.75;4302534;33;35010;-67
2022/11/15 08:26:35;;;;;;;31.90;20.55;;;;;;;8.29;79.48;100017.13;4277319;33;34789;-74
2022/11/15 08:29:21;;;;;;;31.30;19.67;;;;;;;8.32;79.15;100025.62;4287852;33;33227;-75
2022/11/15 08:32:07;;;;;;;32.03;20.73;;;;;;;8.04;80.76;100023.47;4288580;33;34089;-72
2022/11/15 08:34:52;;;;;;;34.35;23.23;;;;;;;7.77;82.77;100031.00;4291426;33;33673;-71
2022/11/15 08:37:38;;;;;;;33.58;21.50;;;;;;;7.77;82.58;100028.31;4301018;33;34795;-70
2022/11/15 08:40:24;;;;;;;34.33;21.45;;;;;;;8.08;81.89;100021.97;4290928;33;33416;-74
2022/11/15 08:43:10;;;;;;;34.20;21.92;;;;;;;7.94;82.29;100017.75;4264991;33;32053;-80
2022/11/15 08:45:56;;;;;;;33.80;21.83;;;;;;;7.79;83.16;100010.00;4288351;33;34126;-75
2022/11/15 08:48:42;;;;;;;35.50;21.65;;;;;;;7.96;82.54;100007.53;4298743;33;34228;-82
2022/11/15 08:51:28;;;;;;;34.47;22.73;;;;;;;7.35;85.97;100011.91;4288854;33;32425;-73
2022/11/15 08:54:14;;;;;;;37.13;22.95;;;;;;;7.55;85.14;100004.41;4276454;33;33760;-72
2022/11/15 08:57:00;;;;;;;33.67;22.55;;;;;;;7.57;85.41;99996.94;4302814;33;34973;-72
2022/11/15 08:59:45;;;;;;;35.97;22.75;;;;;;;7.54;85.47;99996.56;4292688;33;33673;-76
2022/11/15 09:02:31;;;;;;;45.55;27.98;;;;;;;7.71;85.42;100000.34;4303914;33;33507;-72
2022/11/15 09:05:18;;;;;;;37.50;23.77;;;;;;;7.99;84.06;99999.81;4303266;33;34700;-75
2022/11/15 09:08:04;;;;;;;40.30;25.70;;;;;;;8.14;83.04;100007.53;4300821;33;34000;-81
2022/11/15 09:11:10;;;;;;;40.95;24.65;;;;;;;7.97;84.13;100006.50;4290964;33;33465;-70
2022/11/15 09:13:56;;;;;;;36.88;23.15;;;;;;;7.84;84.74;99995.81;4302494;33;33491;-72
2022/11/15 09:16:42;;;;;;;40.72;24.45;;;;;;;7.81;85.62;99997.91;4292507;33;33736;-72
2022/11/15 09:19:28;;;;;;;38.83;24.33;;;;;;;7.81;85.40;99997.91;4302989;33;34373;-81
2022/11/15 09:22:13;;;;;;;40.35;24.48;;;;;;;8.22;83.35;99999.09;4303118;33;33797;-84
2022/11/15 09:24:59;;;;;;;42.38;26.08;;;;;;;8.45;82.34;99994.91;4288872;33;33762;-72
2022/11/15 09:27:45;;;;;;;38.90;25.25;;;;;;;8.38;82.95;99992.25;4288949;33;34642;-72
2022/11/15 09:30:30;;;;;;;35.47;22.95;;;;;;;9.17;79.36;99994.84;4298837;33;35114;-70
2022/11/15 09:33:16;;;;;;;37.03;23.52;;;;;;;8.66;81.24;99990.03;4303206;33;33902;-72
2022/11/15 09:36:04;;;;;;;40.92;23.02;;;;;;;8.56;82.51;99986.00;4302976;33;34099;-82
2022/11/15 09:38:50;;;;;;;37.28;23.40;;;;;;;8.05;85.14;99984.56;4281405;33;34174;-70
2022/11/15 09:41:49;;;;;;;36.85;24.10;;;;;;;8.36;84.18;99970.03;4289822;33;33913;-77
2022/11/15 09:44:59;;;;;;;40.35;25.02;;;;;;;8.57;83.87;99981.41;4300291;33;34911;-70
2022/11/15 09:47:59;;;;;;;39.75;25.95;;;;;;;8.58;83.11;99983.09;4290480;33;34537;-83
2022/11/15 09:50:35;;;;;;;36.92;23.45;;;;;;;9.16;79.90;99979.69;4289882;33;34203;-72
2022/11/15 09:53:03;;;;;;;36.42;24.27;;;;;;;9.29;78.29;99983.22;4283158;33;33571;-70
2022/11/15 09:56:12;;;;;;;37.80;24.00;;;;;;;8.89;80.04;99982.00;4302495;33;33903;-72
2022/11/15 09:58:46;;;;;;;43.83;25.50;;;;;;;8.91;80.80;99968.22;4285912;33;32827;-74
2022/11/15 10:01:31;;;;;;;45.85;28.02;;;;;;;9.09;79.50;99972.72;4273177;33;34193;-69
2022/11/15 10:03:59;;;;;;;40.42;25.67;;;;;;;8.77;80.47;99973.03;4287127;33;34745;-72
2022/11/15 10:06:27;;;;;;;43.28;26.33;;;;;;;8.45;82.69;99964.34;4288154;33;34062;-76
2022/11/15 10:09:03;;;;;;;43.67;26.85;;;;;;;8.48;81.91;99959.28;4302858;33;33760;-76
2022/11/15 10:11:33;;;;;;;44.42;26.58;;;;;;;8.81;80.87;99956.09;4302122;33;33987;-77
2022/11/15 10:14:12;;;;;;;44.05;27.48;;;;;;;9.35;77.77;99949.78;4288902;33;34156;-78
2022/11/15 10:16:56;;;;;;;41.40;25.20;;;;;;;9.11;79.32;99941.66;4288814;33;33897;-74
2022/11/15 10:19:36;;;;;;;44.33;27.27;;;;;;;9.37;78.36;99947.66;4302126;33;33746;-80
2022/11/15 10:22:19;;;;;;;41.67;24.95;;;;;;;8.91;79.97;99944.69;4300675;33;32778;-73
2022/11/15 10:24:47;;;;;;;42.55;26.25;;;;;;;9.25;78.41;99944.97;4301296;33;35132;-79
2022/11/15 10:27:17;;;;;;;45.17;27.13;;;;;;;9.02;79.41;99932.25;4302529;33;34096;-78
2022/11/15 10:29:48;;;;;;;44.25;27.92;;;;;;;8.82;80.67;99929.88;4287293;33;33280;-72
2022/11/15 10:32:20;;;;;;;42.35;27.80;;;;;;;8.68;81.24;99931.13;4302249;33;34534;-75
2022/11/15 10:34:51;;;;;;;43.78;27.27;;;;;;;8.86;80.27;99927.53;4299556;33;34288;-77
2022/11/15 10:37:30;;;;;;;48.03;28.80;;;;;;;8.86;80.25;99914.00;4284393;33;33690;-71
2022/11/15 10:40:20;;;;;;;45.25;30.70;;;;;;;8.89;80.19;99935.16;4301877;33;34317;-76
2022/11/15 10:42:49;;;;;;;50.88;31.37;;;;;;;9.32;78.93;99924.00;4299994;33;34008;-77
2022/11/15 10:45:29;;;;;;;47.17;28.87;;;;;;;8.95;80.33;99921.53;4287750;33;33977;-77
2022/11/15 10:48:12;;;;;;;47.05;29.55;;;;;;;8.79;80.63;99912.22;4301141;33;34871;-74
2022/11/15 10:50:42;;;;;;;42.45;28.02;;;;;;;8.97;79.45;99907.78;4284412;33;32775;-76
2022/11/15 10:53:19;;;;;;;46.95;28.52;;;;;;;8.90;80.35;99912.44;4289119;33;33527;-72
2022/11/15 10:55:48;;;;;;;44.10;28.27;;;;;;;8.49;81.57;99906.88;4299650;33;33972;-76
2022/11/15 10:58:38;;;;;;;45.60;29.12;;;;;;;8.86;80.24;99901.28;4302565;33;33803;-83
2022/11/15 11:01:20;;;;;;;43.58;27.75;;;;;;;9.14;78.58;99876.25;4288006;33;33436;-82
2022/11/15 11:04:04;;;;;;;45.12;28.92;;;;;;;8.79;81.12;99879.75;4287156;33;33940;-76
2022/11/15 11:06:51;;;;;;;41.00;27.05;;;;;;;9.08;79.90;99887.19;4296901;33;33675;-73
2022/11/15 11:09:23;;;;;;;42.50;26.25;;;;;;;9.31;77.71;99872.78;4302735;33;33949;-75
2022/11/15 11:11:52;;;;;;;44.55;28.30;;;;;;;9.12;78.54;99870.22;4290087;33;34281;-75
2022/11/15 11:14:21;;;;;;;46.42;28.30;;;;;;;9.11;79.69;99875.88;4290186;33;33936;-74
2022/11/15 11:16:52;;;;;;;45.47;27.45;;;;;;;8.89;80.22;99873.75;4279326;33;34125;-76
2022/11/15 11:19:51;;;;;;;44.00;26.55;;;;;;;8.93;79.58;99863.28;4288999;33;33739;-77
2022/11/15 11:22:27;;;;;;;41.08;27.20;;;;;;;8.82;79.75;99864.94;4293900;33;34191;-75
2022/11/15 11:25:25;;;;;;;40.17;25.75;;;;;;;9.31;77.64;99875.50;4297713;33;164613;-76
2022/11/15 11:28:14;;;;;;;36.58;24.42;;;;;;;8.93;80.12;99863.28;4275054;33;33441;-76
2022/11/15 11:31:10;;;;;;;41.47;25.77;;;;;;;8.73;80.59;99861.75;4278925;33;34138;-73
2022/11/15 11:33:57;;;;;;;41.70;25.02;;;;;;;9.11;79.90;99862.34;4296070;33;33654;-75
2022/11/15 11:36:37;;;;;;;40.10;25.27;;;;;;;9.56;76.74;99848.97;4299987;33;34685;-75
2022/11/15 11:39:19;;;;;;;37.47;24.92;;;;;;;9.52;76.09;99850.50;4295647;33;33896;-74
2022/11/15 11:41:58;;;;;;;36.08;23.48;;;;;;;9.41;76.49;99848.66;4288617;33;33901;-75
2022/11/15 11:44:50;;;;;;;38.78;23.62;;;;;;;9.37;77.16;99851.03;4287802;33;33506;-76
2022/11/15 11:47:24;;;;;;;40.67;25.00;;;;;;;9.38;76.45;99859.97;4284470;33;33852;-74
2022/11/15 11:49:59;;;;;;;44.17;27.13;;;;;;;8.96;79.40;99854.69;4288325;33;34629;-74
2022/11/15 11:52:34;;;;;;;40.83;25.50;;;;;;;8.79;79.85;99846.44;4276275;33;33343;-77
2022/11/15 11:55:13;;;;;;;40.88;25.65;;;;;;;8.88;79.81;99845.06;4274582;33;33586;-74
2022/11/15 11:58:04;;;;;;;42.13;25.58;;;;;;;9.12;79.08;99835.03;4300338;33;34053;-75
2022/11/15 12:00:34;;;;;;;45.60;27.50;;;;;;;8.62;81.17;99828.22;4272508;33;32852;-76
2022/11/15 12:03:11;;;;;;;45.28;27.52;;;;;;;9.12;79.13;99826.09;4287614;33;33986;-77
2022/11/15 12:05:44;;;;;;;43.15;26.75;;;;;;;9.36;77.89;99821.47;4298258;33;33563;-75
2022/11/15 12:08:20;;;;;;;47.90;28.02;;;;;;;9.46;77.79;99816.28;4284756;33;33923;-72
2022/11/15 12:10:53;;;;;;;43.53;27.80;;;;;;;9.40;78.31;99804.50;4287985;33;34540;-76
2022/11/15 12:13:24;;;;;;;45.72;28.12;;;;;;;9.22;78.82;99802.78;4288792;33;33554;-76
2022/11/15 12:16:02;;;;;;;39.42;25.88;;;;;;;9.68;77.02;99810.19;4288681;33;33292;-74
2022/11/15 12:18:35;;;;;;;41.15;24.85;;;;;;;9.49;78.12;99804.94;4299943;33;33903;-75
2022/11/15 12:21:42;;;;;;;42.17;25.60;;;;;;;9.32;78.27;99793.22;4301009;33;33835;-76
2022/11/15 12:24:37;;;;;;;41.28;25.23;;;;;;;8.74;80.75;99798.47;4296502;33;34115;-77
2022/11/15 12:27:45;;;;;;;46.67;27.35;;;;;;;8.41;82.63;99790.94;4286026;33;34404;-72
2022/11/15 12:30:18;;;;;;;44.85;28.17;;;;;;;8.94;80.98;99778.34;4287363;33;33726;-75
2022/11/15 12:32:53;;;;;;;43.92;26.45;;;;;;;8.82;81.05;99779.19;4272508;33;34151;-73
2022/11/15 12:35:25;;;;;;;36.38;23.83;;;;;;;9.20;79.50;99777.00;4298205;33;34358;-74
2022/11/15 12:37:55;;;;;;;42.38;26.60;;;;;;;8.29;83.57;99782.75;4283195;33;35104;-75
2022/11/15 12:40:27;;;;;;;40.33;25.45;;;;;;;8.78;81.86;99775.31;4288051;33;34032;-73
2022/11/15 12:43:14;;;;;;;43.45;26.35;;;;;;;8.97;81.51;99769.75;4285892;33;35103;-75
2022/11/15 12:45:43;;;;;;;43.38;25.70;;;;;;;8.63;82.16;99759.53;4302032;33;34740;-69
2022/11/15 12:48:16;;;;;;;44.40;27.70;;;;;;;9.07;79.45;99748.34;4301356;33;33171;-71
2022/11/15 12:50:55;;;;;;;44.50;26.25;;;;;;;8.94;80.94;99753.97;4299703;33;33796;-72
2022/11/15 12:53:22;;;;;;;41.30;25.70;;;;;;;9.24;79.80;99762.78;4301960;33;33819;-72
2022/11/15 12:56:12;;;;;;;43.33;26.60;;;;;;;9.42;79.57;99769.06;4301311;33;34821;-72